createdAt,value
2023-02-11T00:01:36.947Z,-0.25
2023-02-11T00:04:05.591Z,-0.31
2023-02-11T00:06:34.279Z,-0.30
2023-02-11T00:09:02.487Z,-0.35
2023-02-11T00:11:30.679Z,-0.40
2023-02-11T00:13:59.905Z,-0.43
2023-02-11T00:16:28.210Z,-0.44
2023-02-11T00:18:55.730Z,-0.45
2023-02-11T00:21:24.988Z,-0.52
2023-02-11T00:23:53.105Z,-0.59
2023-02-11T00:26:23.869Z,-0.66
2023-02-11T00:28:53.095Z,-0.66
2023-02-11T00:31:21.883Z,-0.68
2023-02-11T00:33:49.509Z,-0.68
2023-02-11T00:36:23.057Z,-0.71
2023-02-11T00:38:52.172Z,-0.74
2023-02-11T00:41:20.047Z,-0.68
2023-02-11T00:43:47.423Z,-0.68
2023-02-11T00:46:14.955Z,-0.67
2023-02-11T00:48:42.115Z,-0.66
2023-02-11T00:51:10.466Z,-0.70
2023-02-11T00:53:37.863Z,-0.73
2023-02-11T00:56:05.312Z,-0.76
2023-02-11T00:58:32.940Z,-0.80
2023-02-11T01:03:47.456Z,-0.85
2023-02-11T01:06:15.630Z,-0.91
2023-02-11T01:08:42.600Z,-0.95
2023-02-11T01:11:16.218Z,-0.92
2023-02-11T01:13:43.702Z,-0.92
2023-02-11T01:16:12.094Z,-0.89
2023-02-11T01:18:40.059Z,-0.95
2023-02-11T01:21:08.112Z,-0.97
2023-02-11T01:23:35.397Z,-0.98
2023-02-11T01:26:03.116Z,-1.01
2023-02-11T01:28:31.023Z,-0.97
2023-02-11T01:30:58.290Z,-0.98
2023-02-11T01:33:25.871Z,-1.02
2023-02-11T01:35:53.632Z,-1.05
2023-02-11T01:38:26.617Z,-1.07
2023-02-11T01:40:56.825Z,-1.07
2023-02-11T01:43:25.200Z,-1.09
2023-02-11T01:45:53.006Z,-1.12
2023-02-11T01:48:33.312Z,-1.10
2023-02-11T01:51:17.323Z,-1.12
2023-02-11T01:54:06.706Z,-1.15
2023-02-11T01:56:56.415Z,-1.20
2023-02-11T01:59:33.125Z,-1.21
2023-02-11T02:02:06.076Z,-1.24
2023-02-11T02:04:39.245Z,-1.25
2023-02-11T02:07:12.381Z,-1.26
2023-02-11T02:09:44.422Z,-1.31
2023-02-11T02:12:11.989Z,-1.36
2023-02-11T02:14:40.597Z,-1.36
2023-02-11T02:17:14.846Z,-1.37
2023-02-11T02:19:57.242Z,-1.38
2023-02-11T02:23:07.705Z,-1.40
2023-02-11T02:26:13.250Z,-1.43
2023-02-11T02:28:46.372Z,-1.47
2023-02-11T02:31:19.710Z,-1.44
2023-02-11T02:33:52.625Z,-1.44
2023-02-11T02:36:49.540Z,-1.48
2023-02-11T02:39:26.858Z,-1.52
2023-02-11T02:41:56.527Z,-1.56
2023-02-11T02:44:24.117Z,-1.58
2023-02-11T02:46:51.288Z,-1.59
2023-02-11T02:49:18.636Z,-1.58
2023-02-11T02:52:03.923Z,-1.56
2023-02-11T02:54:34.388Z,-1.57
2023-02-11T02:57:38.844Z,-1.52
2023-02-11T03:00:21.950Z,-1.56
2023-02-11T03:03:24.055Z,-1.57
2023-02-11T03:06:04.655Z,-1.59
2023-02-11T03:08:46.088Z,-1.69
2023-02-11T03:11:17.542Z,-1.69
2023-02-11T03:13:46.183Z,-1.67
2023-02-11T03:16:23.490Z,-1.71
2023-02-11T03:18:57.302Z,-1.75
2023-02-11T03:21:25.207Z,-1.79
2023-02-11T03:23:59.411Z,-1.79
2023-02-11T03:26:31.749Z,-1.82
2023-02-11T03:29:10.413Z,-1.85
2023-02-11T03:31:48.178Z,-1.94
2023-02-11T03:34:30.666Z,-1.91
2023-02-11T03:37:05.737Z,-1.90
2023-02-11T03:39:41.056Z,-1.91
2023-02-11T03:42:11.413Z,-1.95
2023-02-11T03:44:43.991Z,-1.96
2023-02-11T03:47:14.049Z,-1.97
2023-02-11T03:49:43.365Z,-1.99
2023-02-11T03:52:49.652Z,-2.03
2023-02-11T03:55:41.084Z,-2.07
2023-02-11T03:58:09.202Z,-2.11
2023-02-11T04:00:41.376Z,-2.13
2023-02-11T04:03:10.455Z,-2.16
2023-02-11T04:05:38.116Z,-2.20
2023-02-11T04:08:05.878Z,-2.29
2023-02-11T04:10:33.828Z,-2.28
2023-02-11T04:13:00.774Z,-2.28
2023-02-11T04:15:28.122Z,-2.29
2023-02-11T04:17:55.782Z,-2.34
2023-02-11T04:20:22.703Z,-2.33
2023-02-11T04:22:50.262Z,-2.34
2023-02-11T04:25:17.681Z,-2.39
2023-02-11T04:27:45.184Z,-2.39
2023-02-11T04:30:13.057Z,-2.37
2023-02-11T04:32:40.074Z,-2.38
2023-02-11T04:35:07.902Z,-2.39
2023-02-11T04:37:35.772Z,-2.40
2023-02-11T04:40:02.680Z,-2.46
2023-02-11T04:42:30.261Z,-2.43
2023-02-11T04:44:57.184Z,-2.44
2023-02-11T04:47:24.476Z,-2.43
2023-02-11T04:49:51.763Z,-2.45
2023-02-11T04:52:19.008Z,-2.47
2023-02-11T04:54:46.295Z,-2.48
2023-02-11T04:57:13.581Z,-2.52
2023-02-11T04:59:40.828Z,-2.50
2023-02-11T05:02:08.359Z,-2.51
2023-02-11T05:04:35.585Z,-2.55
2023-02-11T05:07:03.311Z,-2.59
2023-02-11T05:09:30.230Z,-2.59
2023-02-11T05:11:57.560Z,-2.61
2023-02-11T05:14:24.836Z,-2.63
2023-02-11T05:16:51.848Z,-2.61
2023-02-11T05:19:19.200Z,-2.63
2023-02-11T05:22:01.347Z,-2.65
2023-02-11T05:24:29.222Z,-2.68
2023-02-11T05:26:56.471Z,-2.68
2023-02-11T05:29:24.081Z,-2.70
2023-02-11T05:31:51.149Z,-2.68
2023-02-11T05:34:18.056Z,-2.73
2023-02-11T05:36:45.665Z,-2.79
2023-02-11T05:39:12.995Z,-2.78
2023-02-11T05:41:40.284Z,-2.81
2023-02-11T05:44:07.248Z,-2.81
2023-02-11T05:46:34.562Z,-2.80
2023-02-11T05:49:02.327Z,-2.85
2023-02-11T05:51:29.309Z,-2.85
2023-02-11T05:53:57.059Z,-2.84
2023-02-11T05:56:24.268Z,-2.83
2023-02-11T05:58:51.522Z,-2.89
2023-02-11T06:01:19.144Z,-2.86
2023-02-11T06:03:46.086Z,-2.89
2023-02-11T06:06:13.592Z,-2.89
2023-02-11T06:08:40.599Z,-2.91
2023-02-11T06:11:07.911Z,-2.94
2023-02-11T06:13:36.772Z,-2.96
2023-02-11T06:16:03.969Z,-2.94
2023-02-11T06:18:31.272Z,-2.92
2023-02-11T06:20:58.495Z,-2.94
2023-02-11T06:23:28.533Z,-2.93
2023-02-11T06:26:02.482Z,-2.92
2023-02-11T06:28:31.737Z,-2.95
2023-02-11T06:31:06.646Z,-2.98
2023-02-11T06:33:35.457Z,-2.95
2023-02-11T06:36:02.717Z,-2.95
2023-02-11T06:38:29.921Z,-2.94
2023-02-11T06:40:57.374Z,-3.00
2023-02-11T06:43:24.597Z,-2.94
2023-02-11T06:45:56.139Z,-2.92
2023-02-11T06:48:24.365Z,-2.89
2023-02-11T06:50:51.990Z,-2.82
2023-02-11T06:53:19.182Z,-2.79
2023-02-11T06:55:46.729Z,-2.78
2023-02-11T06:58:14.380Z,-2.75
2023-02-11T07:00:41.339Z,-2.66
2023-02-11T07:03:08.898Z,-2.62
2023-02-11T07:05:38.305Z,-2.58
2023-02-11T07:08:05.595Z,-2.57
2023-02-11T07:10:34.298Z,-2.51
2023-02-11T07:13:03.146Z,-2.45
2023-02-11T07:15:30.782Z,-2.42
2023-02-11T07:17:58.388Z,-2.36
2023-02-11T07:20:26.858Z,-2.33
2023-02-11T07:22:54.113Z,-2.28
2023-02-11T07:25:21.504Z,-2.24
2023-02-11T07:27:51.170Z,-2.23
2023-02-11T07:30:18.785Z,-2.17
2023-02-11T07:32:45.773Z,-2.12
2023-02-11T07:35:13.097Z,-2.07
2023-02-11T07:37:43.177Z,-2.02
2023-02-11T07:40:10.959Z,-1.99
2023-02-11T07:42:39.636Z,-1.95
2023-02-11T07:45:06.995Z,-1.89
2023-02-11T07:47:35.962Z,-1.86
2023-02-11T07:50:03.638Z,-1.81
2023-02-11T07:52:31.786Z,-1.78
2023-02-11T07:54:58.748Z,-1.73
2023-02-11T07:57:28.348Z,-1.70
2023-02-11T07:59:55.478Z,-1.65
2023-02-11T08:02:23.242Z,-1.60
2023-02-11T08:04:50.871Z,-1.56
2023-02-11T08:07:18.976Z,-1.50
2023-02-11T08:09:46.624Z,-1.45
2023-02-11T08:12:14.777Z,-1.40
2023-02-11T08:14:41.793Z,-1.35
2023-02-11T08:17:09.479Z,-1.32
2023-02-11T08:19:37.199Z,-1.24
2023-02-11T08:22:04.398Z,-1.18
2023-02-11T08:24:32.104Z,-1.12
2023-02-11T08:26:59.086Z,-1.05
2023-02-11T08:29:28.486Z,-1.00
2023-02-11T08:31:55.875Z,-0.96
2023-02-11T08:34:23.048Z,-0.92
2023-02-11T08:36:50.418Z,-0.85
2023-02-11T08:39:20.971Z,-0.80
2023-02-11T08:41:50.697Z,-0.74
2023-02-11T08:44:20.020Z,-0.69
2023-02-11T08:46:47.498Z,-0.64
2023-02-11T08:49:15.481Z,-0.58
2023-02-11T08:51:44.091Z,-0.54
2023-02-11T08:54:12.095Z,-0.48
2023-02-11T08:56:39.892Z,-0.41
2023-02-11T08:59:22.120Z,-0.36
2023-02-11T09:01:53.002Z,-0.31
2023-02-11T09:04:29.079Z,-0.24
2023-02-11T09:07:05.279Z,-0.18
2023-02-11T09:09:53.800Z,-0.13
2023-02-11T09:12:29.491Z,-0.06
2023-02-11T09:15:11.227Z,0.01
2023-02-11T09:17:50.861Z,0.06
2023-02-11T09:20:50.736Z,0.14
2023-02-11T09:23:36.465Z,0.21
2023-02-11T09:26:21.496Z,0.30
2023-02-11T09:29:06.925Z,0.38
2023-02-11T09:31:37.252Z,0.48
2023-02-11T09:34:42.968Z,0.54
2023-02-11T09:37:22.703Z,0.64
2023-02-11T09:40:09.237Z,0.74
2023-02-11T09:42:45.837Z,0.83
2023-02-11T09:45:21.165Z,0.91
2023-02-11T09:47:57.680Z,0.98
2023-02-11T09:50:44.884Z,1.04
2023-02-11T09:53:22.422Z,1.11
2023-02-11T09:55:56.263Z,1.17
2023-02-11T09:58:27.949Z,1.23
2023-02-11T10:01:10.892Z,1.29
2023-02-11T10:03:48.641Z,1.35
2023-02-11T10:06:41.589Z,1.39
2023-02-11T10:09:20.799Z,1.45
2023-02-11T10:12:17.764Z,1.49
2023-02-11T10:14:54.464Z,1.52
2023-02-11T10:17:59.632Z,1.57
2023-02-11T10:21:07.118Z,1.63
2023-02-11T10:23:38.237Z,1.70
2023-02-11T10:26:15.485Z,1.78
2023-02-11T10:28:49.525Z,1.87
2023-02-11T10:31:34.766Z,1.94
2023-02-11T10:34:07.682Z,2.02
2023-02-11T10:36:38.312Z,2.13
2023-02-11T10:39:21.299Z,2.25
2023-02-11T10:41:59.083Z,2.36
2023-02-11T10:45:01.660Z,2.44
2023-02-11T10:47:34.675Z,2.51
2023-02-11T10:50:17.119Z,2.57
2023-02-11T10:52:44.125Z,2.64
2023-02-11T10:55:18.175Z,2.70
2023-02-11T10:58:01.364Z,2.76
2023-02-11T11:00:37.095Z,2.84
2023-02-11T11:03:17.413Z,2.88
2023-02-11T11:05:49.600Z,2.92
2023-02-11T11:08:18.811Z,2.96
2023-02-11T11:10:50.323Z,3.01
2023-02-11T11:13:26.576Z,3.07
2023-02-11T11:16:12.949Z,3.14
2023-02-11T11:18:52.252Z,3.19
2023-02-11T11:21:22.464Z,3.26
2023-02-11T11:23:57.303Z,3.32
2023-02-11T11:26:28.473Z,3.39
2023-02-11T11:29:07.978Z,3.46
2023-02-11T11:31:49.885Z,3.52
2023-02-11T11:34:29.303Z,3.59
2023-02-11T11:36:58.747Z,3.65
2023-02-11T11:39:31.320Z,3.72
2023-02-11T11:42:00.911Z,3.78
2023-02-11T11:44:36.581Z,3.85
2023-02-11T11:47:18.680Z,3.91
2023-02-11T11:49:52.663Z,3.96
2023-02-11T11:52:41.435Z,4.02
2023-02-11T11:55:20.661Z,4.07
2023-02-11T11:57:49.908Z,4.12
2023-02-11T12:00:39.273Z,4.18
2023-02-11T12:03:41.606Z,4.22
2023-02-11T12:06:32.648Z,4.28
2023-02-11T12:09:28.045Z,4.33
2023-02-11T12:12:32.829Z,4.37
2023-02-11T12:15:31.763Z,4.45
2023-02-11T12:18:17.556Z,4.52
2023-02-11T12:21:08.442Z,4.60
2023-02-11T12:23:41.542Z,4.66
2023-02-11T12:26:25.137Z,4.74
2023-02-11T12:29:07.537Z,4.80
2023-02-11T12:32:04.400Z,4.88
2023-02-11T12:34:41.371Z,4.91
2023-02-11T12:37:27.443Z,5.00
2023-02-11T12:40:07.402Z,5.09
2023-02-11T12:43:14.885Z,5.15
2023-02-11T12:46:02.094Z,5.22
2023-02-11T12:48:57.726Z,5.29
2023-02-11T12:52:01.595Z,5.35
2023-02-11T12:54:32.142Z,5.40
2023-02-11T12:57:12.569Z,5.42
2023-02-11T12:59:59.121Z,5.45
2023-02-11T13:02:35.452Z,5.47
2023-02-11T13:05:16.338Z,5.51
2023-02-11T13:07:46.880Z,5.53
2023-02-11T13:10:15.675Z,5.55
2023-02-11T13:13:09.864Z,5.60
2023-02-11T13:15:39.028Z,5.65
2023-02-11T13:18:45.995Z,5.70
2023-02-11T13:21:16.853Z,5.75
2023-02-11T13:24:03.315Z,5.81
2023-02-11T13:26:40.023Z,5.86
2023-02-11T13:29:19.598Z,5.93
2023-02-11T13:32:06.261Z,5.98
2023-02-11T13:34:43.252Z,6.02
2023-02-11T13:37:22.584Z,6.06
2023-02-11T13:40:26.832Z,6.09
2023-02-11T13:42:58.442Z,6.15
2023-02-11T13:45:48.405Z,6.19
2023-02-11T13:48:24.737Z,6.23
2023-02-11T13:50:59.824Z,6.25
2023-02-11T13:53:29.509Z,6.27
2023-02-11T13:56:10.287Z,6.30
2023-02-11T13:58:47.878Z,6.34
2023-02-11T14:01:41.413Z,6.36
2023-02-11T14:04:49.030Z,6.39
2023-02-11T14:07:51.645Z,6.42
2023-02-11T14:10:44.326Z,6.43
2023-02-11T14:13:35.101Z,6.44
2023-02-11T14:16:35.293Z,6.44
2023-02-11T14:19:06.904Z,6.45
2023-02-11T14:21:41.402Z,6.45
2023-02-11T14:24:13.458Z,6.45
2023-02-11T14:26:50.002Z,6.46
2023-02-11T14:29:18.801Z,6.47
2023-02-11T14:32:04.677Z,6.47
2023-02-11T14:34:48.825Z,6.49
2023-02-11T14:37:29.323Z,6.50
2023-02-11T14:40:24.002Z,6.51
2023-02-11T14:42:54.339Z,6.52
2023-02-11T14:45:29.629Z,6.53
2023-02-11T14:48:08.631Z,6.55
2023-02-11T14:50:44.417Z,6.56
2023-02-11T14:53:17.052Z,6.58
2023-02-11T14:55:48.873Z,6.57
2023-02-11T14:58:31.972Z,6.58
2023-02-11T15:01:21.850Z,6.61
2023-02-11T15:03:50.946Z,6.62
2023-02-11T15:06:25.796Z,6.64
2023-02-11T15:09:18.968Z,6.65
2023-02-11T15:11:51.382Z,6.68
2023-02-11T15:14:29.226Z,6.70
2023-02-11T15:17:01.663Z,6.70
2023-02-11T15:19:36.838Z,6.71
2023-02-11T15:22:21.763Z,6.72
2023-02-11T15:25:11.150Z,6.72
2023-02-11T15:27:48.421Z,6.72
2023-02-11T15:30:22.024Z,6.72
2023-02-11T15:33:06.162Z,6.71
2023-02-11T15:35:39.449Z,6.72
2023-02-11T15:38:08.571Z,6.72
2023-02-11T15:40:38.584Z,6.73
2023-02-11T15:43:10.228Z,6.75
2023-02-11T15:46:04.887Z,6.76
2023-02-11T15:48:42.642Z,6.76
2023-02-11T15:51:32.146Z,6.75
2023-02-11T15:54:03.597Z,6.75
2023-02-11T15:56:45.129Z,6.74
2023-02-11T15:59:22.023Z,6.74
2023-02-11T16:01:51.400Z,6.72
2023-02-11T16:04:22.822Z,6.73
2023-02-11T16:06:52.333Z,6.71
2023-02-11T16:09:24.164Z,6.70
2023-02-11T16:11:52.641Z,6.69
2023-02-11T16:14:24.113Z,6.70
2023-02-11T16:16:57.199Z,6.68
2023-02-11T16:19:28.208Z,6.68
2023-02-11T16:21:59.243Z,6.67
2023-02-11T16:24:33.360Z,6.66
2023-02-11T16:27:24.287Z,6.65
2023-02-11T16:29:54.822Z,6.65
2023-02-11T16:32:30.760Z,6.63
2023-02-11T16:35:01.855Z,6.62
2023-02-11T16:37:30.509Z,6.62
2023-02-11T16:39:59.430Z,6.61
2023-02-11T16:42:29.586Z,6.60
2023-02-11T16:44:58.215Z,6.59
2023-02-11T16:47:31.713Z,6.60
2023-02-11T16:50:01.783Z,6.58
2023-02-11T16:52:32.300Z,6.59
2023-02-11T16:55:00.495Z,6.56
2023-02-11T16:57:30.402Z,6.56
2023-02-11T16:59:59.995Z,6.56
2023-02-11T17:02:36.610Z,6.56
2023-02-11T17:05:07.987Z,6.57
2023-02-11T17:07:36.399Z,6.55
2023-02-11T17:10:07.568Z,6.56
2023-02-11T17:12:35.944Z,6.54
2023-02-11T17:15:07.472Z,6.53
2023-02-11T17:17:36.567Z,6.53
2023-02-11T17:20:06.628Z,6.54
2023-02-11T17:22:35.779Z,6.52
2023-02-11T17:25:08.873Z,6.51
2023-02-11T17:27:38.136Z,6.51
2023-02-11T17:30:07.481Z,6.50
2023-02-11T17:32:38.694Z,6.48
2023-02-11T17:35:08.299Z,6.47
2023-02-11T17:37:37.156Z,6.46
2023-02-11T17:40:08.849Z,6.44
2023-02-11T17:42:37.168Z,6.42
2023-02-11T17:45:05.959Z,6.41
2023-02-11T17:47:35.453Z,6.41
2023-02-11T17:50:05.176Z,6.39
2023-02-11T17:52:33.919Z,6.38
2023-02-11T17:55:02.732Z,6.38
2023-02-11T17:57:33.737Z,6.39
2023-02-11T18:00:02.925Z,6.38
2023-02-11T18:02:30.585Z,6.37
2023-02-11T18:05:00.608Z,6.35
2023-02-11T18:07:30.839Z,6.33
2023-02-11T18:09:59.469Z,6.34
2023-02-11T18:12:28.312Z,6.31
2023-02-11T18:14:58.395Z,6.29
2023-02-11T18:17:28.572Z,6.28
2023-02-11T18:19:58.939Z,6.27
2023-02-11T18:22:27.849Z,6.25
2023-02-11T18:24:57.742Z,6.23
2023-02-11T18:27:26.350Z,6.23
2023-02-11T18:29:55.559Z,6.22
2023-02-11T18:32:24.157Z,6.21
2023-02-11T18:34:54.184Z,6.21
2023-02-11T18:37:26.114Z,6.19
2023-02-11T18:39:54.685Z,6.19
2023-02-11T18:42:23.194Z,6.18
2023-02-11T18:44:52.167Z,6.17
2023-02-11T18:47:20.835Z,6.16
2023-02-11T18:49:53.441Z,6.15
2023-02-11T18:52:24.196Z,6.15
2023-02-11T18:54:54.860Z,6.14
2023-02-11T18:57:23.678Z,6.14
2023-02-11T18:59:53.393Z,6.12
2023-02-11T19:02:24.795Z,6.13
2023-02-11T19:04:55.178Z,6.13
2023-02-11T19:07:31.750Z,6.12
2023-02-11T19:10:00.305Z,6.12
2023-02-11T19:12:29.181Z,6.09
2023-02-11T19:15:00.026Z,6.09
2023-02-11T19:17:28.467Z,6.07
2023-02-11T19:19:57.581Z,6.07
2023-02-11T19:22:27.020Z,6.06
2023-02-11T19:24:55.639Z,6.06
2023-02-11T19:27:24.514Z,6.05
2023-02-11T19:29:53.412Z,6.05
2023-02-11T19:32:22.835Z,6.05
2023-02-11T19:34:55.072Z,6.05
2023-02-11T19:37:25.880Z,6.02
2023-02-11T19:39:54.929Z,6.03
2023-02-11T19:42:25.844Z,6.03
2023-02-11T19:44:56.782Z,6.03
2023-02-11T19:47:28.559Z,6.04
2023-02-11T19:49:56.871Z,6.03
2023-02-11T19:52:25.846Z,6.04
2023-02-11T19:54:56.290Z,6.02
2023-02-11T19:57:25.584Z,6.03
2023-02-11T19:59:55.548Z,6.03
2023-02-11T20:02:25.721Z,6.03
2023-02-11T20:04:54.444Z,6.02
2023-02-11T20:07:23.312Z,6.01
2023-02-11T20:09:54.578Z,6.00
2023-02-11T20:12:25.921Z,6.00
2023-02-11T20:14:54.229Z,6.00
2023-02-11T20:17:22.676Z,5.99
2023-02-11T20:19:52.138Z,5.96
2023-02-11T20:22:21.126Z,5.97
2023-02-11T20:24:49.424Z,5.97
2023-02-11T20:27:20.064Z,5.98
2023-02-11T20:29:48.872Z,5.97
2023-02-11T20:32:18.153Z,5.96
2023-02-11T20:34:48.693Z,5.97
2023-02-11T20:37:21.005Z,5.96
2023-02-11T20:39:49.426Z,5.95
2023-02-11T20:42:18.472Z,5.94
2023-02-11T20:44:47.552Z,5.95
2023-02-11T20:47:15.604Z,5.94
2023-02-11T20:49:43.293Z,5.92
2023-02-11T20:52:12.866Z,5.95
2023-02-11T20:54:41.583Z,5.94
2023-02-11T20:57:46.749Z,5.94
2023-02-11T21:00:18.951Z,5.93
2023-02-11T21:02:52.747Z,5.92
2023-02-11T21:05:23.852Z,5.92
2023-02-11T21:07:54.294Z,5.92
2023-02-11T21:10:24.817Z,5.91
2023-02-11T21:12:52.775Z,5.91
2023-02-11T21:15:25.058Z,5.90
2023-02-11T21:17:55.080Z,5.88
2023-02-11T21:20:24.155Z,5.88
2023-02-11T21:22:52.604Z,5.89
2023-02-11T21:25:23.485Z,5.87
2023-02-11T21:27:52.796Z,5.89
2023-02-11T21:30:21.396Z,5.85
2023-02-11T21:32:49.640Z,5.84
2023-02-11T21:35:18.694Z,5.83
2023-02-11T21:38:31.067Z,5.81
2023-02-11T21:41:04.669Z,5.81
2023-02-11T21:43:34.107Z,5.78
2023-02-11T21:46:08.309Z,5.80
2023-02-11T21:48:36.897Z,5.79
2023-02-11T21:51:09.511Z,5.79
2023-02-11T21:53:37.379Z,5.80
2023-02-11T21:56:09.197Z,5.79
2023-02-11T21:58:37.439Z,5.81
2023-02-11T22:01:17.442Z,5.82
2023-02-11T22:03:46.467Z,5.82
2023-02-11T22:06:18.157Z,5.83
2023-02-11T22:08:45.732Z,5.80
2023-02-11T22:11:14.350Z,5.80
2023-02-11T22:13:42.726Z,5.80
2023-02-11T22:16:13.730Z,5.80
2023-02-11T22:18:41.701Z,5.79
2023-02-11T22:21:15.523Z,5.79
2023-02-11T22:23:43.090Z,5.80
2023-02-11T22:26:18.098Z,5.82
2023-02-11T22:28:46.224Z,5.83
2023-02-11T22:31:16.475Z,5.85
2023-02-11T22:33:43.891Z,5.84
2023-02-11T22:36:17.175Z,5.84
2023-02-11T22:38:44.841Z,5.84
2023-02-11T22:41:12.863Z,5.85
2023-02-11T22:43:41.833Z,5.86
2023-02-11T22:46:11.255Z,5.86
2023-02-11T22:48:38.304Z,5.87
2023-02-11T22:51:15.194Z,5.91
2023-02-11T22:53:44.005Z,5.92
2023-02-11T22:56:15.630Z,5.94
2023-02-11T22:58:43.136Z,5.96
2023-02-11T23:01:10.345Z,5.98
2023-02-11T23:03:37.884Z,6.00
2023-02-11T23:06:08.142Z,5.99
2023-02-11T23:08:35.887Z,6.03
2023-02-11T23:11:13.131Z,6.06
2023-02-11T23:13:41.880Z,6.07
2023-02-11T23:16:12.303Z,6.09
2023-02-11T23:18:43.282Z,6.11
2023-02-11T23:21:13.578Z,6.13
2023-02-11T23:23:40.893Z,6.13
2023-02-11T23:26:17.203Z,6.16
2023-02-11T23:28:46.422Z,6.19
2023-02-11T23:31:23.833Z,6.22
2023-02-11T23:33:51.971Z,6.24
2023-02-11T23:36:20.671Z,6.26
2023-02-11T23:38:48.855Z,6.29
2023-02-11T23:41:16.959Z,6.31
2023-02-11T23:43:52.354Z,6.34
2023-02-11T23:46:22.100Z,6.36
2023-02-11T23:48:50.944Z,6.40
2023-02-11T23:51:18.652Z,6.41
2023-02-11T23:53:49.543Z,6.45
2023-02-11T23:56:19.658Z,6.49
2023-02-11T23:58:51.990Z,6.51
